Time;durP1;ratioP1;P1;durP2;ratioP2;P2;SDS_P1;SDS_P2;PMS_P1;PMS_P2;Temp;Humidity;BMP_temperature;BMP_pressure;BME280_temperature;BME280_humidity;BME280_pressure;Samples;Min_cycle;Max_cycle;Signal;HPM_P1;HPM_P2
2021/07/19 00:02:39;;;;;;;9.73;5.28;;;16.10;99.90;;;;;;5063222;28;20281;-87
2021/07/19 00:05:28;;;;;;;9.73;5.43;;;16.00;99.90;;;;;;5054599;28;20049;-81
2021/07/19 00:08:17;;;;;;;12.38;5.70;;;15.90;99.90;;;;;;5070994;28;20109;-83
2021/07/19 00:11:05;;;;;;;10.98;5.50;;;15.80;99.90;;;;;;5071791;28;20049;-81
2021/07/19 00:13:52;;;;;;;11.75;5.72;;;15.80;99.90;;;;;;5061885;28;20037;-85
2021/07/19 00:16:39;;;;;;;10.23;5.55;;;15.80;99.90;;;;;;5054484;28;20045;-83
2021/07/19 00:19:26;;;;;;;11.02;5.10;;;15.80;99.90;;;;;;5061413;28;20037;-81
2021/07/19 00:22:14;;;;;;;11.40;5.30;;;15.90;99.90;;;;;;5061289;28;20045;-83
2021/07/19 00:25:04;;;;;;;10.20;5.32;;;16.00;99.90;;;;;;5051192;28;20104;-82
2021/07/19 00:27:55;;;;;;;10.45;5.18;;;16.00;99.90;;;;;;5056593;28;20103;-82
2021/07/19 00:30:42;;;;;;;10.25;5.47;;;16.00;99.90;;;;;;5059517;28;20033;-82
2021/07/19 00:33:29;;;;;;;7.45;4.55;;;16.10;99.90;;;;;;5078209;28;20025;-80
2021/07/19 00:36:16;;;;;;;8.30;5.10;;;16.00;99.90;;;;;;5059971;28;20089;-79
2021/07/19 00:39:06;;;;;;;8.45;4.63;;;16.00;99.90;;;;;;5058464;28;20037;-83
2021/07/19 00:41:55;;;;;;;9.68;4.60;;;16.00;99.90;;;;;;5076374;28;20379;-81
2021/07/19 00:44:43;;;;;;;9.52;5.53;;;16.00;99.90;;;;;;5051740;28;20033;-79
2021/07/19 00:47:30;;;;;;;9.38;5.15;;;16.00;99.90;;;;;;5062682;28;20036;-80
2021/07/19 00:50:18;;;;;;;8.65;4.80;;;16.10;99.90;;;;;;5057195;28;20052;-82
2021/07/19 00:53:07;;;;;;;10.50;5.05;;;15.90;99.90;;;;;;5065236;28;20049;-82
2021/07/19 00:55:56;;;;;;;9.57;4.93;;;15.90;99.90;;;;;;5055128;28;20083;-78
2021/07/19 00:58:48;;;;;;;11.60;5.55;;;15.90;99.90;;;;;;5051530;28;20037;-81
2021/07/19 01:01:38;;;;;;;9.68;5.50;;;15.80;99.90;;;;;;5057308;28;20055;-80
2021/07/19 01:04:30;;;;;;;11.10;5.30;;;15.80;99.90;;;;;;5073061;28;20048;-81
2021/07/19 01:07:18;;;;;;;9.30;5.25;;;15.80;99.90;;;;;;5063012;28;20033;-85
2021/07/19 01:10:07;;;;;;;10.43;5.20;;;15.80;99.90;;;;;;5064759;28;20037;-81
2021/07/19 01:12:56;;;;;;;8.45;5.05;;;15.70;99.90;;;;;;5054855;28;20041;-83
2021/07/19 01:15:44;;;;;;;13.07;5.37;;;15.60;99.90;;;;;;5069525;28;20033;-78
2021/07/19 01:18:34;;;;;;;9.27;5.50;;;15.60;99.90;;;;;;5087024;28;20292;-80
2021/07/19 01:22:07;;;;;;;8.82;4.95;;;15.60;99.90;;;;;;5066054;28;20045;-83
2021/07/19 01:25:12;;;;;;;9.55;4.85;;;15.50;99.90;;;;;;5058272;28;20052;-80
2021/07/19 01:28:16;;;;;;;10.50;5.10;;;15.50;99.90;;;;;;5058571;28;20040;-83
2021/07/19 01:31:10;;;;;;;9.93;5.43;;;15.40;99.90;;;;;;5073047;28;20101;-79
2021/07/19 01:34:00;;;;;;;10.85;5.10;;;15.40;99.90;;;;;;5064484;28;20088;-82
2021/07/19 01:36:50;;;;;;;13.65;5.60;;;15.40;99.90;;;;;;5054526;28;20041;-80
2021/07/19 01:39:38;;;;;;;10.10;5.90;;;15.40;99.90;;;;;;5063553;28;20036;-83
2021/07/19 01:42:25;;;;;;;12.57;5.85;;;15.40;99.90;;;;;;5081865;28;20041;-81
2021/07/19 01:45:13;;;;;;;9.77;5.15;;;15.30;99.90;;;;;;5052759;28;20067;-82
2021/07/19 01:48:02;;;;;;;9.95;5.63;;;15.20;99.90;;;;;;5067269;28;20051;-81
2021/07/19 01:50:50;;;;;;;9.90;5.60;;;16.00;99.90;;;;;;5051952;28;20021;-79
2021/07/19 01:53:37;;;;;;;9.15;4.97;;;15.20;99.90;;;;;;5062575;28;20037;-78
2021/07/19 01:56:26;;;;;;;8.32;5.47;;;15.30;99.90;;;;;;5056468;28;20297;-80
2021/07/19 01:59:13;;;;;;;11.98;6.20;;;15.30;99.90;;;;;;5057764;28;21551;-80
2021/07/19 02:02:01;;;;;;;9.02;5.47;;;15.20;99.90;;;;;;5055842;28;20041;-82
2021/07/19 02:04:50;;;;;;;12.40;5.93;;;15.10;99.90;;;;;;5060007;28;20218;-78
2021/07/19 02:07:39;;;;;;;12.10;5.85;;;15.20;99.90;;;;;;5059934;28;20039;-80
2021/07/19 02:10:28;;;;;;;11.52;5.88;;;15.40;99.90;;;;;;5054145;28;20859;-82
2021/07/19 02:13:17;;;;;;;9.68;5.65;;;15.00;99.90;;;;;;5058087;28;20045;-83
2021/07/19 02:16:05;;;;;;;14.27;5.50;;;15.10;99.90;;;;;;5055572;28;20021;-83
2021/07/19 02:18:53;;;;;;;11.63;6.20;;;15.20;99.90;;;;;;5066709;28;20080;-82
2021/07/19 02:21:42;;;;;;;10.82;5.00;;;15.20;99.90;;;;;;5063537;28;20038;-81
2021/07/19 02:24:31;;;;;;;10.63;5.47;;;15.30;99.90;;;;;;5054131;28;20043;-82
2021/07/19 02:27:19;;;;;;;10.95;5.70;;;15.40;99.90;;;;;;5067066;28;20049;-81
2021/07/19 02:30:08;;;;;;;10.10;5.63;;;15.40;99.90;;;;;;5060690;28;20041;-82
2021/07/19 02:32:57;;;;;;;10.48;5.05;;;15.50;99.90;;;;;;5062628;28;20041;-82
2021/07/19 02:35:45;;;;;;;10.50;5.00;;;15.70;99.90;;;;;;5068529;28;20044;-77
2021/07/19 02:38:35;;;;;;;11.60;5.65;;;15.70;99.90;;;;;;5061621;28;20040;-83
2021/07/19 02:41:25;;;;;;;13.15;5.90;;;15.70;99.90;;;;;;5062263;28;20052;-84
2021/07/19 02:44:13;;;;;;;12.25;5.30;;;15.70;99.90;;;;;;5056375;28;20045;-81
2021/07/19 02:47:01;;;;;;;10.98;5.43;;;15.70;99.90;;;;;;5056726;28;20029;-80
2021/07/19 02:49:49;;;;;;;10.05;5.53;;;15.60;99.90;;;;;;5077858;28;20048;-83
2021/07/19 02:52:38;;;;;;;15.15;5.93;;;15.60;99.90;;;;;;5061273;28;20053;-84
2021/07/19 02:55:29;;;;;;;11.93;5.82;;;15.50;99.90;;;;;;5076603;28;20047;-83
2021/07/19 02:58:18;;;;;;;11.70;6.07;;;15.50;99.90;;;;;;5048557;28;20120;-82
2021/07/19 03:01:08;;;;;;;13.15;5.93;;;15.60;99.90;;;;;;5065758;28;20067;-83
2021/07/19 03:03:58;;;;;;;14.95;6.28;;;16.40;99.90;;;;;;5062191;28;20093;-85
2021/07/19 03:06:46;;;;;;;;;;;15.50;99.90;;;;;;5066209;28;20051;-87
2021/07/19 03:09:37;;;;;;;12.13;6.32;;;15.60;99.90;;;;;;5083019;28;19939;-84
2021/07/19 03:12:27;;;;;;;12.65;6.72;;;15.60;99.90;;;;;;5077374;28;20037;-82
2021/07/19 03:15:14;;;;;;;12.75;6.70;;;15.60;99.90;;;;;;5064624;28;20570;-85
2021/07/19 03:18:04;;;;;;;12.10;6.20;;;15.70;99.90;;;;;;5064139;28;20041;-82
2021/07/19 03:20:53;;;;;;;12.27;6.28;;;16.10;99.90;;;;;;5073794;28;20078;-81
2021/07/19 03:23:41;;;;;;;12.68;6.35;;;15.80;99.90;;;;;;5063321;28;20052;-86
2021/07/19 03:26:29;;;;;;;12.45;6.10;;;15.90;99.90;;;;;;5077497;28;20051;-82
2021/07/19 03:29:18;;;;;;;12.05;6.50;;;15.90;99.90;;;;;;5064194;28;20143;-87
2021/07/19 03:32:07;;;;;;;13.68;6.18;;;15.80;99.90;;;;;;5057648;28;20052;-86
2021/07/19 03:34:55;;;;;;;14.40;5.53;;;15.80;99.90;;;;;;5079142;28;20064;-81
2021/07/19 03:37:44;;;;;;;11.93;6.07;;;15.80;99.90;;;;;;5060642;28;20049;-81
2021/07/19 03:40:31;;;;;;;13.77;6.15;;;15.80;99.90;;;;;;5058141;28;20045;-84
2021/07/19 03:43:18;;;;;;;10.38;5.25;;;15.70;99.90;;;;;;5067888;28;20116;-82
2021/07/19 03:46:07;;;;;;;10.88;4.72;;;15.90;99.90;;;;;;5058592;28;20041;-83
2021/07/19 03:48:55;;;;;;;11.95;4.55;;;15.70;99.90;;;;;;5063635;28;20032;-80
2021/07/19 03:51:45;;;;;;;10.10;4.25;;;15.70;99.90;;;;;;5061465;28;20036;-83
2021/07/19 03:54:33;;;;;;;12.70;4.40;;;15.70;99.90;;;;;;5078396;28;20080;-79
2021/07/19 03:57:21;;;;;;;11.27;5.05;;;15.70;99.90;;;;;;5074260;28;20104;-85
2021/07/19 04:00:11;;;;;;;14.65;5.72;;;15.80;99.90;;;;;;5059205;28;20041;-83
2021/07/19 04:03:05;;;;;;;12.63;5.32;;;15.80;99.90;;;;;;5064458;28;20096;-81
2021/07/19 04:06:00;;;;;;;17.17;5.78;;;15.70;99.90;;;;;;5073935;28;20025;-83
2021/07/19 04:08:48;;;;;;;12.40;5.93;;;15.70;99.90;;;;;;5074748;28;20056;-83
2021/07/19 04:11:37;;;;;;;12.90;5.63;;;15.70;99.90;;;;;;5055873;28;20100;-82
2021/07/19 04:14:25;;;;;;;10.77;5.68;;;15.60;99.90;;;;;;5064909;28;20068;-80
2021/07/19 04:17:12;;;;;;;9.80;5.63;;;15.60;99.90;;;;;;5069479;28;20056;-84
2021/07/19 04:20:04;;;;;;;11.85;6.28;;;15.70;99.90;;;;;;5061832;28;20079;-84
2021/07/19 04:22:53;;;;;;;12.38;5.93;;;15.60;99.90;;;;;;5073169;28;20100;-82
2021/07/19 04:25:41;;;;;;;13.88;5.75;;;15.50;99.90;;;;;;5069113;28;20067;-82
2021/07/19 04:28:28;;;;;;;18.75;6.07;;;15.50;99.90;;;;;;5068448;28;20048;-82
2021/07/19 04:31:16;;;;;;;11.88;5.60;;;15.50;99.90;;;;;;5056916;28;20023;-86
2021/07/19 04:34:04;;;;;;;15.18;5.10;;;15.60;99.90;;;;;;5069832;28;20048;-84
2021/07/19 04:36:52;;;;;;;14.98;4.95;;;15.70;99.90;;;;;;5059256;28;20085;-82
2021/07/19 04:39:40;;;;;;;12.20;4.45;;;15.70;99.90;;;;;;5055713;28;20049;-83
2021/07/19 04:42:27;;;;;;;9.90;4.45;;;15.70;99.90;;;;;;5075553;28;20032;-82
2021/07/19 04:45:19;;;;;;;9.30;4.38;;;15.60;99.90;;;;;;5060824;28;20060;-83
2021/07/19 04:48:06;;;;;;;12.02;4.88;;;15.60;99.90;;;;;;5063394;28;20056;-83
2021/07/19 04:50:53;;;;;;;9.75;4.50;;;15.70;99.90;;;;;;5065788;28;20126;-84
2021/07/19 04:53:44;;;;;;;10.95;4.35;;;15.70;99.90;;;;;;5074027;28;20017;-82
2021/07/19 04:56:32;;;;;;;13.27;4.47;;;15.70;99.90;;;;;;5065351;28;20092;-84
2021/07/19 04:59:20;;;;;;;11.52;4.00;;;15.80;99.90;;;;;;5057384;28;20080;-83
2021/07/19 05:02:11;;;;;;;10.80;4.35;;;15.70;99.90;;;;;;5062337;28;20088;-81
2021/07/19 05:05:00;;;;;;;10.77;5.00;;;15.80;99.90;;;;;;5066569;28;20048;-84
2021/07/19 05:07:49;;;;;;;9.82;4.00;;;15.80;99.90;;;;;;5058991;28;20068;-85
2021/07/19 05:10:41;;;;;;;11.60;4.30;;;16.70;99.90;;;;;;5058963;28;20068;-83
2021/07/19 05:13:28;;;;;;;9.18;4.43;;;15.90;99.90;;;;;;5056866;28;20065;-83
2021/07/19 05:16:15;;;;;;;10.68;4.65;;;16.00;99.90;;;;;;5059064;28;20057;-82
2021/07/19 05:19:03;;;;;;;14.55;4.63;;;17.00;99.90;;;;;;5059683;28;20037;-83
2021/07/19 05:21:50;;;;;;;9.25;3.92;;;16.10;99.90;;;;;;5061074;28;20025;-86
2021/07/19 05:24:38;;;;;;;11.65;4.30;;;16.10;99.90;;;;;;5077199;28;20040;-85
2021/07/19 05:27:27;;;;;;;9.88;3.97;;;16.10;99.90;;;;;;5067828;28;20051;-84
2021/07/19 05:30:14;;;;;;;15.02;3.80;;;16.10;99.90;;;;;;5052240;28;20052;-81
2021/07/19 05:33:01;;;;;;;13.52;3.95;;;16.00;99.90;;;;;;5066808;28;20094;-83
2021/07/19 05:35:48;;;;;;;12.32;3.53;;;16.00;99.90;;;;;;5048950;28;20041;-84
2021/07/19 05:38:35;;;;;;;12.25;3.35;;;16.00;99.90;;;;;;5059576;28;20092;-83
2021/07/19 05:41:23;;;;;;;11.32;3.72;;;15.90;99.90;;;;;;5063682;28;20146;-83
2021/07/19 05:44:11;;;;;;;13.18;4.28;;;15.90;99.90;;;;;;5062889;28;20041;-82
2021/07/19 05:47:00;;;;;;;11.20;3.90;;;16.00;99.90;;;;;;5052726;28;20068;-82
2021/07/19 05:49:48;;;;;;;10.15;3.78;;;16.00;99.90;;;;;;5062294;28;20040;-87
2021/07/19 05:52:36;;;;;;;12.10;3.78;;;16.10;99.90;;;;;;5059003;28;20055;-86
2021/07/19 05:55:23;;;;;;;10.35;3.83;;;16.10;99.90;;;;;;5056255;28;20045;-82
2021/07/19 05:58:10;;;;;;;10.55;3.42;;;16.10;99.90;;;;;;5066257;28;20041;-86
2021/07/19 06:00:59;;;;;;;9.85;3.33;;;16.10;99.90;;;;;;5076993;28;20088;-83
2021/07/19 06:03:46;;;;;;;8.35;3.28;;;16.10;99.90;;;;;;5069551;28;20057;-84
2021/07/19 06:06:34;;;;;;;10.43;3.55;;;16.30;99.90;;;;;;5065905;28;20075;-84
2021/07/19 06:09:21;;;;;;;9.43;3.63;;;16.30;99.90;;;;;;5059456;28;20048;-82
2021/07/19 06:12:10;;;;;;;12.75;3.47;;;16.40;99.90;;;;;;5055288;28;20187;-84
2021/07/19 06:14:57;;;;;;;11.02;3.65;;;16.40;99.90;;;;;;5060637;28;20040;-87
2021/07/19 06:17:50;;;;;;;7.50;2.95;;;16.40;99.90;;;;;;5059942;28;20040;-84
2021/07/19 06:20:38;;;;;;;11.45;3.63;;;16.30;99.90;;;;;;5048676;28;20545;-82
2021/07/19 06:23:25;;;;;;;8.18;3.38;;;16.40;99.90;;;;;;5056352;28;20108;-85
2021/07/19 06:26:12;;;;;;;9.00;3.70;;;16.50;99.90;;;;;;5058525;28;20045;-82
2021/07/19 06:28:59;;;;;;;13.57;3.58;;;18.00;99.90;;;;;;5053010;28;20109;-83
2021/07/19 06:31:46;;;;;;;10.88;3.78;;;16.50;99.90;;;;;;5054493;28;20055;-82
2021/07/19 06:34:35;;;;;;;9.10;3.55;;;16.40;99.90;;;;;;5069789;28;20044;-83
2021/07/19 06:37:22;;;;;;;9.73;3.50;;;16.50;99.90;;;;;;5067070;28;20048;-83
2021/07/19 06:40:10;;;;;;;10.73;2.97;;;16.60;99.90;;;;;;5056510;28;20055;-81
2021/07/19 06:42:57;;;;;;;8.02;3.13;;;16.70;99.90;;;;;;5058673;28;20037;-85
2021/07/19 06:45:47;;;;;;;11.65;3.20;;;16.80;99.90;;;;;;5053135;28;20100;-84
2021/07/19 06:48:35;;;;;;;9.27;2.88;;;16.80;99.90;;;;;;5056004;28;20043;-82
2021/07/19 06:51:23;;;;;;;7.43;2.85;;;18.10;99.90;;;;;;5069116;28;20029;-80
2021/07/19 06:54:10;;;;;;;9.82;3.00;;;16.90;99.90;;;;;;5050329;28;20013;-82
2021/07/19 06:56:57;;;;;;;8.25;3.03;;;17.00;99.90;;;;;;5055008;28;20033;-82
2021/07/19 06:59:45;;;;;;;8.13;2.88;;;17.20;99.90;;;;;;5060616;28;20047;-80
2021/07/19 07:02:33;;;;;;;7.88;2.90;;;19.20;99.90;;;;;;5076839;28;20072;-83
2021/07/19 07:05:20;;;;;;;9.00;3.03;;;17.50;99.90;;;;;;5066505;28;20068;-82
2021/07/19 07:08:09;;;;;;;9.77;3.50;;;18.20;99.90;;;;;;5072660;28;20057;-84
2021/07/19 07:10:58;;;;;;;7.25;2.67;;;17.80;99.90;;;;;;5058158;28;20071;-85
2021/07/19 07:13:45;;;;;;;8.32;2.97;;;18.30;99.90;;;;;;5048935;28;20045;-83
2021/07/19 07:16:32;;;;;;;11.35;3.20;;;17.80;99.90;;;;;;5049676;28;20040;-83
2021/07/19 07:19:19;;;;;;;9.38;3.10;;;17.70;99.90;;;;;;5063494;28;20063;-86
2021/07/19 07:22:06;;;;;;;9.90;2.90;;;17.70;99.90;;;;;;5069281;28;20041;-82
2021/07/19 07:24:56;;;;;;;13.32;3.05;;;17.60;99.90;;;;;;5059102;28;20044;-81
2021/07/19 07:27:43;;;;;;;11.25;3.30;;;17.50;99.90;;;;;;5058538;28;20025;-80
2021/07/19 07:30:30;;;;;;;9.07;3.00;;;17.50;99.90;;;;;;5075044;28;20127;-82
2021/07/19 07:33:17;;;;;;;7.30;3.05;;;17.50;99.90;;;;;;5058901;28;20084;-80
2021/07/19 07:36:05;;;;;;;8.63;3.40;;;19.40;99.90;;;;;;5062487;28;20075;-79
2021/07/19 07:38:52;;;;;;;9.75;3.13;;;18.00;99.90;;;;;;5055646;28;20029;-83
2021/07/19 07:41:41;;;;;;;9.40;3.08;;;18.00;99.90;;;;;;5070053;28;20041;-81
2021/07/19 07:44:28;;;;;;;8.63;3.03;;;17.80;99.90;;;;;;5056247;28;20042;-83
2021/07/19 07:47:16;;;;;;;9.52;3.22;;;17.80;99.90;;;;;;5068037;28;20057;-80
2021/07/19 07:50:04;;;;;;;8.88;3.22;;;17.80;99.90;;;;;;5075500;28;20096;-82
2021/07/19 07:52:51;;;;;;;5.40;2.50;;;17.90;99.90;;;;;;5076666;28;20043;-81
2021/07/19 07:55:38;;;;;;;8.73;3.13;;;18.10;99.90;;;;;;5068403;28;20109;-83
2021/07/19 07:58:27;;;;;;;8.65;2.92;;;18.30;99.90;;;;;;5069844;28;20064;-82
2021/07/19 08:01:14;;;;;;;12.60;3.00;;;18.60;99.90;;;;;;5059501;28;20101;-82
2021/07/19 08:04:01;;;;;;;8.18;2.85;;;18.50;99.90;;;;;;5062379;28;20029;-81
2021/07/19 08:06:48;;;;;;;7.70;2.70;;;18.40;99.90;;;;;;5057197;28;20021;-82
2021/07/19 08:09:36;;;;;;;10.80;3.30;;;18.40;99.90;;;;;;5064233;28;20035;-81
2021/07/19 08:12:23;;;;;;;6.85;2.83;;;18.30;99.90;;;;;;5071677;28;20036;-82
2021/07/19 08:15:14;;;;;;;9.10;3.20;;;18.40;99.90;;;;;;5066957;28;20096;-81
2021/07/19 08:18:02;;;;;;;9.77;3.13;;;18.30;99.90;;;;;;5071772;28;20049;-82
2021/07/19 08:20:49;;;;;;;6.13;3.08;;;18.20;99.90;;;;;;5058823;28;20036;-83
2021/07/19 08:23:37;;;;;;;7.60;2.72;;;18.50;99.90;;;;;;5061189;28;20033;-83
2021/07/19 08:26:24;;;;;;;9.27;2.85;;;20.50;99.90;;;;;;5048118;28;20040;-81
2021/07/19 08:29:11;;;;;;;8.18;2.85;;;18.90;99.90;;;;;;5053014;28;20065;-80
2021/07/19 08:31:59;;;;;;;9.38;3.53;;;18.90;99.90;;;;;;5048680;28;20045;-83
2021/07/19 08:34:48;;;;;;;11.05;3.45;;;18.90;99.90;;;;;;5052341;28;20044;-82
2021/07/19 08:37:35;;;;;;;8.48;3.00;;;20.50;99.90;;;;;;5050875;28;20041;-82
2021/07/19 08:40:23;;;;;;;8.02;3.08;;;20.20;99.90;;;;;;5060077;28;20049;-85
2021/07/19 08:43:11;;;;;;;5.10;2.80;;;19.00;99.90;;;;;;5066714;28;20049;-84
2021/07/19 08:45:58;;;;;;;13.45;3.15;;;19.10;99.90;;;;;;5059370;28;20096;-85
2021/07/19 08:48:51;;;;;;;6.07;2.90;;;19.40;99.90;;;;;;5053576;28;20408;-85
2021/07/19 08:51:40;;;;;;;6.65;2.45;;;19.30;99.40;;;;;;5042412;28;20098;-82
2021/07/19 08:54:31;;;;;;;6.13;2.50;;;19.60;98.60;;;;;;5054596;28;20049;-85
2021/07/19 08:57:20;;;;;;;7.47;2.70;;;19.80;98.50;;;;;;5056204;28;20043;-85
2021/07/19 09:00:10;;;;;;;10.63;3.13;;;19.60;98.40;;;;;;5054657;28;20108;-85
2021/07/19 09:02:57;;;;;;;6.85;2.78;;;19.60;97.30;;;;;;5056449;28;20110;-84
2021/07/19 09:05:47;;;;;;;4.88;2.78;;;19.40;97.50;;;;;;5062423;28;20040;-88
2021/07/19 09:08:45;;;;;;;8.30;2.75;;;19.60;98.20;;;;;;5055335;28;20083;-84
2021/07/19 09:11:32;;;;;;;6.35;2.45;;;21.00;98.50;;;;;;5055163;28;20745;-87
2021/07/19 09:14:19;;;;;;;6.63;2.72;;;19.60;98.70;;;;;;5054890;28;20055;-82
2021/07/19 09:17:06;;;;;;;7.20;2.95;;;20.30;98.70;;;;;;5051613;28;20025;-84
2021/07/19 09:19:55;;;;;;;9.32;3.08;;;19.40;98.70;;;;;;5056570;28;20087;-84
2021/07/19 09:22:53;;;;;;;8.40;3.35;;;19.30;98.70;;;;;;5075358;28;20044;-82
2021/07/19 09:25:40;;;;;;;6.43;3.20;;;19.10;98.80;;;;;;5056860;28;20056;-81
2021/07/19 09:28:29;;;;;;;6.05;3.22;;;19.20;98.40;;;;;;5060511;28;20096;-83
2021/07/19 09:31:16;;;;;;;7.75;2.95;;;19.40;98.50;;;;;;5057325;28;20105;-83
2021/07/19 09:34:11;;;;;;;7.55;2.88;;;19.50;98.80;;;;;;5050840;28;20183;-85
2021/07/19 09:37:01;;;;;;;10.27;3.42;;;19.50;99.50;;;;;;5047255;28;20045;-82
2021/07/19 09:39:53;;;;;;;9.65;3.40;;;19.60;98.40;;;;;;5057568;28;20049;-86
2021/07/19 09:42:42;;;;;;;9.07;3.35;;;19.50;98.30;;;;;;5041900;28;20076;-83
2021/07/19 09:45:31;;;;;;;7.17;2.77;;;19.40;98.00;;;;;;5065791;28;20037;-84
2021/07/19 09:48:22;;;;;;;10.30;3.73;;;19.90;97.90;;;;;;5053445;28;20884;-87
2021/07/19 09:51:09;;;;;;;7.40;3.63;;;20.00;98.00;;;;;;5049713;28;20051;-85
2021/07/19 09:54:07;;;;;;;8.05;3.35;;;20.20;97.50;;;;;;5043886;28;20049;-84
2021/07/19 09:57:01;;;;;;;8.45;3.70;;;20.20;96.70;;;;;;5057532;28;20040;-83
2021/07/19 09:59:51;;;;;;;8.00;3.83;;;19.80;96.10;;;;;;5048827;28;20045;-79
2021/07/19 10:02:39;;;;;;;10.57;3.70;;;19.40;97.20;;;;;;5058903;28;20902;-81
2021/07/19 10:05:28;;;;;;;10.02;3.85;;;19.40;97.80;;;;;;5052782;28;20053;-85
2021/07/19 10:08:21;;;;;;;9.63;3.53;;;19.30;97.90;;;;;;5059864;28;20045;-82
2021/07/19 10:11:15;;;;;;;8.35;3.55;;;19.40;98.10;;;;;;5069200;28;20044;-79
2021/07/19 10:14:04;;;;;;;7.00;3.53;;;19.60;97.30;;;;;;5057353;28;20044;-81
2021/07/19 10:16:52;;;;;;;10.43;3.65;;;19.80;97.60;;;;;;5053251;28;20440;-84
2021/07/19 10:19:41;;;;;;;10.23;3.90;;;20.00;97.30;;;;;;5060292;28;20075;-87
2021/07/19 10:22:28;;;;;;;9.75;3.30;;;20.20;97.10;;;;;;5059192;28;20055;-88
2021/07/19 10:25:16;;;;;;;7.75;3.50;;;20.30;97.40;;;;;;5067235;28;20100;-82
2021/07/19 10:28:03;;;;;;;7.80;3.80;;;19.90;96.90;;;;;;5067766;28;20051;-84
2021/07/19 10:30:53;;;;;;;8.65;3.88;;;19.60;96.80;;;;;;5056928;28;20045;-84
2021/07/19 10:33:47;;;;;;;9.23;3.78;;;19.70;97.70;;;;;;5056938;28;20076;-86
2021/07/19 10:36:39;;;;;;;9.30;3.83;;;20.00;97.20;;;;;;5033705;28;20041;-86
2021/07/19 10:39:30;;;;;;;8.93;3.90;;;20.60;96.90;;;;;;5047256;28;20599;-87
2021/07/19 10:42:17;;;;;;;9.90;4.28;;;20.60;97.00;;;;;;5046942;28;20087;-84
2021/07/19 10:45:09;;;;;;;10.45;4.20;;;20.50;97.50;;;;;;5049422;28;20127;-81
2021/07/19 10:47:58;;;;;;;8.93;4.45;;;20.20;97.80;;;;;;5059408;28;20109;-87
2021/07/19 10:50:45;;;;;;;9.23;4.05;;;20.30;98.10;;;;;;5049644;28;20041;-85
2021/07/19 10:53:33;;;;;;;9.48;4.82;;;20.30;97.70;;;;;;5047725;28;20037;-85
2021/07/19 10:56:28;;;;;;;10.00;4.20;;;20.20;97.70;;;;;;5046445;28;20097;-82
2021/07/19 10:59:23;;;;;;;12.40;4.82;;;20.50;96.40;;;;;;5051084;28;20049;-86
2021/07/19 11:02:26;;;;;;;12.88;4.40;;;20.70;97.00;;;;;;5047974;28;20036;-85
2021/07/19 11:05:17;;;;;;;10.05;4.53;;;22.20;96.40;;;;;;5052513;28;20072;-81
2021/07/19 11:08:06;;;;;;;10.13;4.50;;;20.80;95.20;;;;;;5041292;28;20045;-88
2021/07/19 11:10:55;;;;;;;8.63;4.03;;;20.70;95.60;;;;;;5046968;28;20043;-81
2021/07/19 11:13:53;;;;;;;9.75;4.45;;;20.50;96.50;;;;;;5053222;28;20128;-83
2021/07/19 11:16:42;;;;;;;10.55;4.43;;;20.40;96.80;;;;;;5067486;28;20044;-83
2021/07/19 11:19:30;;;;;;;9.97;4.50;;;20.40;97.10;;;;;;5046138;28;20052;-83
2021/07/19 11:22:25;;;;;;;12.93;5.00;;;20.20;97.70;;;;;;5064377;28;20341;-84
2021/07/19 11:25:15;;;;;;;10.68;4.55;;;20.30;97.50;;;;;;5049826;28;20076;-85
2021/07/19 11:28:13;;;;;;;;;;;20.90;97.50;;;;;;5041540;28;20163;-83
2021/07/19 11:31:09;;;;;;;9.82;4.68;;;20.90;96.10;;;;;;5041304;28;19978;-85
2021/07/19 11:33:59;;;;;;;9.82;4.88;;;21.00;95.80;;;;;;5058252;28;20075;-84
2021/07/19 11:36:47;;;;;;;9.73;4.32;;;20.90;96.20;;;;;;5051948;28;20081;-81
2021/07/19 11:39:45;;;;;;;10.65;4.88;;;20.60;96.10;;;;;;5053813;28;20105;-86
2021/07/19 11:42:35;;;;;;;10.80;4.97;;;20.80;96.20;;;;;;5045715;28;20046;-82
2021/07/19 11:45:23;;;;;;;9.90;5.18;;;20.50;96.10;;;;;;5065231;28;20125;-80
2021/07/19 11:48:11;;;;;;;11.90;5.00;;;19.90;97.00;;;;;;5051080;28;20041;-82
2021/07/19 11:50:58;;;;;;;10.80;4.55;;;19.80;96.90;;;;;;5050630;28;20035;-87
2021/07/19 11:53:45;;;;;;;10.38;5.03;;;19.80;97.40;;;;;;5044130;28;20048;-81
2021/07/19 11:56:34;;;;;;;11.38;5.05;;;20.20;96.80;;;;;;5061827;28;20037;-85
2021/07/19 11:59:22;;;;;;;9.85;4.53;;;21.80;96.50;;;;;;5048950;28;20045;-82
2021/07/19 12:02:09;;;;;;;12.80;5.15;;;21.20;96.90;;;;;;5040214;28;20175;-88
2021/07/19 12:04:56;;;;;;;7.75;4.43;;;20.90;95.90;;;;;;5049986;28;20045;-84
2021/07/19 12:07:44;;;;;;;12.18;5.00;;;20.70;96.30;;;;;;5060877;28;20053;-86
2021/07/19 12:10:34;;;;;;;9.55;4.80;;;20.40;96.30;;;;;;5044703;28;20332;-87
2021/07/19 12:13:22;;;;;;;10.25;4.60;;;20.50;97.10;;;;;;5051888;28;20956;-84
2021/07/19 12:16:11;;;;;;;9.23;4.35;;;22.10;96.60;;;;;;5032923;28;20053;-87
2021/07/19 12:18:59;;;;;;;10.40;4.88;;;20.80;96.80;;;;;;5053986;28;20045;-83
2021/07/19 12:21:48;;;;;;;8.75;4.70;;;20.80;95.70;;;;;;5041698;28;20054;-85
2021/07/19 12:24:35;;;;;;;9.32;4.78;;;20.70;95.90;;;;;;5040928;28;20075;-85
2021/07/19 12:27:22;;;;;;;9.52;4.72;;;21.20;96.30;;;;;;5041317;28;20116;-83
2021/07/19 12:30:11;;;;;;;9.13;4.70;;;20.60;96.60;;;;;;5049068;28;20471;-83
2021/07/19 12:32:58;;;;;;;11.23;4.55;;;20.60;96.70;;;;;;5041561;28;20045;-88
2021/07/19 12:35:49;;;;;;;10.60;4.88;;;20.80;96.20;;;;;;5039484;28;20041;-84
2021/07/19 12:38:36;;;;;;;10.98;4.80;;;20.50;96.70;;;;;;5063209;28;20049;-81
2021/07/19 12:41:24;;;;;;;10.15;5.07;;;20.50;96.50;;;;;;5058853;28;20108;-85
2021/07/19 12:44:12;;;;;;;7.88;4.72;;;20.50;96.70;;;;;;5056523;28;20064;-87
2021/07/19 12:47:01;;;;;;;9.43;4.55;;;20.50;97.10;;;;;;5046587;28;20044;-86
2021/07/19 12:49:48;;;;;;;22.70;4.72;;;20.50;97.20;;;;;;5043593;28;20041;-85
2021/07/19 12:52:36;;;;;;;8.00;4.15;;;20.40;97.00;;;;;;5043683;28;20052;-86
2021/07/19 12:55:34;;;;;;;11.75;4.75;;;20.40;97.40;;;;;;5049610;28;20036;-88
2021/07/19 12:58:21;;;;;;;10.05;4.90;;;20.40;97.80;;;;;;5039798;28;20051;-82
2021/07/19 13:01:10;;;;;;;9.07;4.80;;;20.50;97.20;;;;;;5054993;28;20120;-85
2021/07/19 13:04:05;;;;;;;11.00;4.93;;;20.50;97.50;;;;;;5038881;28;20049;-86
2021/07/19 13:06:53;;;;;;;8.60;4.65;;;20.40;97.10;;;;;;5041016;28;20060;-87
2021/07/19 13:09:41;;;;;;;10.68;5.10;;;20.50;96.50;;;;;;5049818;28;20047;-84
2021/07/19 13:12:29;;;;;;;11.15;5.13;;;20.40;97.00;;;;;;5055201;28;20077;-86
2021/07/19 13:15:18;;;;;;;10.88;4.50;;;20.50;97.20;;;;;;5046896;28;20427;-84
2021/07/19 13:18:07;;;;;;;10.00;4.78;;;20.70;96.50;;;;;;5044035;28;20041;-86
2021/07/19 13:21:02;;;;;;;10.77;5.07;;;21.00;95.80;;;;;;5058306;28;20068;-85
2021/07/19 13:23:49;;;;;;;12.32;5.55;;;21.00;96.30;;;;;;5035030;28;20041;-86
2021/07/19 13:26:37;;;;;;;11.77;4.88;;;20.90;96.20;;;;;;5046805;28;20060;-86
2021/07/19 13:29:27;;;;;;;16.42;5.80;;;20.70;96.20;;;;;;5062660;28;20048;-88
2021/07/19 13:32:18;;;;;;;10.95;5.18;;;20.70;96.20;;;;;;5048640;28;20051;-88
2021/07/19 13:35:07;;;;;;;10.00;5.07;;;21.00;96.00;;;;;;5035197;28;20107;-86
2021/07/19 13:38:00;;;;;;;9.20;4.72;;;20.90;96.50;;;;;;5039983;28;20033;-87
2021/07/19 13:40:50;;;;;;;9.85;5.20;;;20.70;96.40;;;;;;5037044;28;20041;-87
2021/07/19 13:43:39;;;;;;;15.68;5.53;;;21.00;96.10;;;;;;5048962;28;20040;-82
2021/07/19 13:46:31;;;;;;;11.20;5.13;;;21.30;96.20;;;;;;5042695;28;20051;-85
2021/07/19 13:49:18;;;;;;;10.55;4.93;;;21.20;95.50;;;;;;5049106;28;20049;-86
2021/07/19 13:52:06;;;;;;;10.43;4.78;;;21.30;96.30;;;;;;5044832;28;20037;-85
2021/07/19 13:54:55;;;;;;;13.25;5.22;;;21.40;96.00;;;;;;5042724;28;20049;-85
2021/07/19 13:57:42;;;;;;;9.77;5.22;;;21.30;96.30;;;;;;5051834;28;20045;-86
2021/07/19 14:00:29;;;;;;;13.93;5.10;;;21.30;95.70;;;;;;5043675;28;20124;-89
2021/07/19 14:03:17;;;;;;;11.60;4.78;;;21.30;95.60;;;;;;5045764;28;20041;-88
2021/07/19 14:06:04;;;;;;;10.82;5.47;;;21.40;96.20;;;;;;5046379;28;20049;-85
2021/07/19 14:08:51;;;;;;;9.60;5.20;;;21.30;96.20;;;;;;5036422;28;20045;-85
2021/07/19 14:11:43;;;;;;;10.68;5.10;;;21.40;95.70;;;;;;5030381;28;20095;-84
2021/07/19 14:14:30;;;;;;;8.35;4.80;;;21.50;95.90;;;;;;5033829;28;20123;-83
2021/07/19 14:17:18;;;;;;;10.40;5.28;;;22.30;95.20;;;;;;5047654;28;20048;-88
2021/07/19 14:20:06;;;;;;;9.25;5.38;;;21.80;95.50;;;;;;5041260;28;20083;-88
2021/07/19 14:22:53;;;;;;;12.40;5.85;;;21.50;94.90;;;;;;5049395;28;20041;-87
2021/07/19 14:25:40;;;;;;;10.95;5.10;;;21.20;95.80;;;;;;5042345;28;20044;-87
2021/07/19 14:28:29;;;;;;;10.45;4.78;;;21.20;96.20;;;;;;5050132;28;20124;-86
2021/07/19 14:31:17;;;;;;;10.85;5.60;;;21.20;96.70;;;;;;5047170;28;20056;-86
2021/07/19 14:34:05;;;;;;;9.25;4.80;;;21.30;95.90;;;;;;5059588;28;20101;-86
2021/07/19 14:36:52;;;;;;;13.05;5.70;;;22.30;96.90;;;;;;5040967;28;20048;-85